createdAt,value
2022-12-23T14:36:15.613Z,4.79
2022-12-23T14:39:30.364Z,4.87
2022-12-23T14:42:05.438Z,4.94
2022-12-23T14:44:49.255Z,4.91
2022-12-23T14:47:34.577Z,4.95
2022-12-23T14:50:37.688Z,4.98
2022-12-23T14:53:22.453Z,4.91
2022-12-23T14:55:53.705Z,4.91
2022-12-23T14:58:58.107Z,4.97
2022-12-23T15:01:33.492Z,4.97
2022-12-23T15:04:09.720Z,4.90
2022-12-23T15:06:40.722Z,4.95
2022-12-23T15:09:22.602Z,4.90
2022-12-23T15:11:51.195Z,4.87
2022-12-23T15:14:26.607Z,4.83
2022-12-23T15:16:56.255Z,4.90
2022-12-23T15:19:27.172Z,4.80
2022-12-23T15:22:17.228Z,4.97
2022-12-23T15:24:53.473Z,5.04
2022-12-23T15:27:28.326Z,5.00
2022-12-23T15:29:57.684Z,4.83
2022-12-23T15:32:27.538Z,4.80
2022-12-23T15:35:02.101Z,4.85
2022-12-23T15:37:32.574Z,4.77
2022-12-23T15:40:13.079Z,4.83
2022-12-23T15:42:49.076Z,4.77
2022-12-23T15:45:35.585Z,4.79
2022-12-23T15:48:05.360Z,4.76
2022-12-23T15:50:40.493Z,4.80
2022-12-23T15:53:12.340Z,4.77
2022-12-23T15:55:43.381Z,4.74
2022-12-23T15:58:19.674Z,4.74
2022-12-23T16:00:54.289Z,4.76
2022-12-23T16:03:29.302Z,4.62
2022-12-23T16:06:11.357Z,4.59
2022-12-23T16:08:40.205Z,4.66
2022-12-23T16:11:15.956Z,4.62
2022-12-23T16:13:58.690Z,4.59
2022-12-23T16:16:39.210Z,4.56
2022-12-23T16:19:28.632Z,4.59
2022-12-23T16:21:57.418Z,4.63
2022-12-23T16:24:26.219Z,4.62
2022-12-23T16:26:57.761Z,4.66
2022-12-23T16:29:28.186Z,4.70
2022-12-23T16:32:01.636Z,4.60
2022-12-23T16:34:32.653Z,4.60
2022-12-23T16:37:02.517Z,4.62
2022-12-23T16:39:30.930Z,4.54
2022-12-23T16:42:00.801Z,4.63
2022-12-23T16:44:29.501Z,4.67
2022-12-23T16:47:04.225Z,4.62
2022-12-23T16:49:34.331Z,4.64
2022-12-23T16:52:04.484Z,4.56
2022-12-23T16:54:34.719Z,4.59
2022-12-23T16:57:07.530Z,4.69
2022-12-23T16:59:41.455Z,4.56
2022-12-23T17:02:20.576Z,4.54
2022-12-23T17:04:48.978Z,4.54
2022-12-23T17:07:17.355Z,4.42
2022-12-23T17:09:46.297Z,4.42
2022-12-23T17:12:16.098Z,4.50
2022-12-23T17:14:44.454Z,4.54
2022-12-23T17:17:15.800Z,4.52
2022-12-23T17:19:44.221Z,4.45
2022-12-23T17:22:14.322Z,4.53
2022-12-23T17:24:42.605Z,4.45
2022-12-23T17:27:20.063Z,4.41
2022-12-23T17:29:51.097Z,4.45
2022-12-23T17:32:21.265Z,4.54
2022-12-23T17:34:49.801Z,4.49
2022-12-23T17:37:20.435Z,4.41
2022-12-23T17:39:50.584Z,4.45
2022-12-23T17:42:25.744Z,4.48
2022-12-23T17:44:54.627Z,4.43
2022-12-23T17:47:24.299Z,4.41
2022-12-23T17:49:53.046Z,4.38
2022-12-23T17:52:23.644Z,4.35
2022-12-23T17:54:53.300Z,4.38
2022-12-23T17:57:26.603Z,4.28
2022-12-23T17:59:58.053Z,4.31
2022-12-23T18:02:30.912Z,4.38
2022-12-23T18:04:59.617Z,4.41
2022-12-23T18:07:30.242Z,4.46
2022-12-23T18:10:02.447Z,4.35
2022-12-23T18:12:37.428Z,4.35
2022-12-23T18:15:07.647Z,4.36
2022-12-23T18:17:36.892Z,4.26
2022-12-23T18:20:08.658Z,4.22
2022-12-23T18:22:37.437Z,4.25
2022-12-23T18:25:06.610Z,4.25
2022-12-23T18:27:36.813Z,4.19
2022-12-23T18:30:08.836Z,4.19
2022-12-23T18:32:37.403Z,4.18
2022-12-23T18:35:33.071Z,4.06
2022-12-23T18:38:02.853Z,4.04
2022-12-23T18:40:33.168Z,4.06
2022-12-23T18:43:03.401Z,4.05
2022-12-23T18:45:35.914Z,4.06
2022-12-23T18:48:07.623Z,4.15
2022-12-23T18:50:38.698Z,4.09
2022-12-23T18:53:08.413Z,4.04
2022-12-23T18:55:37.850Z,4.04
2022-12-23T18:58:14.821Z,4.05
2022-12-23T19:00:44.110Z,3.99
2022-12-23T19:03:23.127Z,3.94
2022-12-23T19:05:52.441Z,3.95
2022-12-23T19:08:26.804Z,4.02
2022-12-23T19:10:56.958Z,3.95
2022-12-23T19:13:26.639Z,3.85
2022-12-23T19:15:55.259Z,3.75
2022-12-23T19:18:25.304Z,3.78
2022-12-23T19:20:53.946Z,3.74
2022-12-23T19:23:22.980Z,3.73
2022-12-23T19:25:55.264Z,3.80
2022-12-23T19:28:24.146Z,3.74
2022-12-23T19:30:54.425Z,3.75
2022-12-23T19:33:22.869Z,3.75
2022-12-23T19:35:54.147Z,3.73
2022-12-23T19:38:22.598Z,3.75
2022-12-23T19:40:59.735Z,3.64
2022-12-23T19:43:28.248Z,3.63
2022-12-23T19:46:02.055Z,3.70
2022-12-23T19:48:31.896Z,3.69
2022-12-23T19:51:01.511Z,3.71
2022-12-23T19:53:30.430Z,3.66
2022-12-23T19:56:00.162Z,3.63
2022-12-23T19:58:32.977Z,3.59
2022-12-23T20:01:19.648Z,3.53
2022-12-23T20:03:51.010Z,3.49
2022-12-23T20:06:21.518Z,3.52
2022-12-23T20:08:54.932Z,3.59
2022-12-23T20:11:31.016Z,3.50
2022-12-23T20:14:01.980Z,3.63
2022-12-23T20:16:30.695Z,3.64
2022-12-23T20:19:01.051Z,3.63
2022-12-23T20:21:29.377Z,3.62
2022-12-23T20:23:58.257Z,3.56
2022-12-23T20:26:28.182Z,3.60
2022-12-23T20:28:57.731Z,3.66
2022-12-23T20:31:27.544Z,3.64
2022-12-23T20:33:57.516Z,3.57
2022-12-23T20:36:30.025Z,3.62
2022-12-23T20:39:03.673Z,3.64
2022-12-23T20:41:38.356Z,3.60
2022-12-23T20:46:56.757Z,3.63
2022-12-23T20:49:26.979Z,3.57
2022-12-23T20:51:57.244Z,3.62
2022-12-23T20:54:32.194Z,3.67
2022-12-23T20:57:03.532Z,3.54
2022-12-23T20:59:33.113Z,3.54
2022-12-23T21:02:02.303Z,3.53
2022-12-23T21:04:31.064Z,3.54
2022-12-23T21:07:00.661Z,3.53
2022-12-23T21:09:29.312Z,3.50
2022-12-23T21:11:58.564Z,3.54
2022-12-23T21:14:27.517Z,3.57
2022-12-23T21:16:56.087Z,3.62
2022-12-23T21:19:26.982Z,3.60
2022-12-23T21:21:55.472Z,3.60
2022-12-23T21:24:25.729Z,3.57
2022-12-23T21:26:57.018Z,3.60
2022-12-23T21:29:26.366Z,3.60
2022-12-23T21:31:55.664Z,3.64
2022-12-23T21:34:24.342Z,3.70
2022-12-23T21:36:53.349Z,3.71
2022-12-23T21:39:24.718Z,3.71
2022-12-23T21:41:55.785Z,3.70
2022-12-23T21:44:24.788Z,3.66
2022-12-23T21:46:56.860Z,3.69
2022-12-23T21:49:25.446Z,3.67
2022-12-23T21:51:54.601Z,3.60
2022-12-23T21:54:23.528Z,3.69
2022-12-23T21:56:51.724Z,3.63
2022-12-23T21:59:34.962Z,3.64
2022-12-23T22:02:05.499Z,3.63
2022-12-23T22:04:34.366Z,3.64
2022-12-23T22:07:02.822Z,3.63
2022-12-23T22:09:32.922Z,3.64
2022-12-23T22:12:01.665Z,3.59
2022-12-23T22:14:31.602Z,3.54
2022-12-23T22:17:00.350Z,3.50
2022-12-23T22:19:28.837Z,3.54
2022-12-23T22:21:57.024Z,3.43
2022-12-23T22:24:25.558Z,3.52
2022-12-23T22:26:54.330Z,3.57
2022-12-23T22:29:23.402Z,3.56
2022-12-23T22:31:54.939Z,3.54
2022-12-23T22:34:24.706Z,3.67
2022-12-23T22:36:54.275Z,3.74
2022-12-23T22:39:23.554Z,3.73
2022-12-23T22:41:54.045Z,3.75
2022-12-23T22:44:22.748Z,3.75
2022-12-23T22:47:01.426Z,3.81
2022-12-23T22:49:30.327Z,3.80
2022-12-23T22:51:59.121Z,3.81
2022-12-23T22:54:27.741Z,3.91
2022-12-23T22:56:56.357Z,3.93
2022-12-23T22:59:28.858Z,3.87
2022-12-23T23:02:00.851Z,3.83
2022-12-23T23:04:30.842Z,3.85
2022-12-23T23:06:59.150Z,3.84
2022-12-23T23:09:29.232Z,3.91
2022-12-23T23:11:58.645Z,3.91
2022-12-23T23:14:27.902Z,3.94
2022-12-23T23:17:02.589Z,3.97
2022-12-23T23:19:34.095Z,4.02
2022-12-23T23:22:02.684Z,4.09
2022-12-23T23:24:32.029Z,4.01
2022-12-23T23:27:00.923Z,4.06
2022-12-23T23:29:30.744Z,4.04
2022-12-23T23:32:02.892Z,4.08
2022-12-23T23:34:32.127Z,4.01
2022-12-23T23:37:01.291Z,4.04
2022-12-23T23:39:30.007Z,4.01
2022-12-23T23:41:59.129Z,3.98
2022-12-23T23:44:30.473Z,4.02
2022-12-23T23:46:59.331Z,4.09
2022-12-23T23:49:29.341Z,4.12
2022-12-23T23:52:04.772Z,4.05
2022-12-23T23:54:33.282Z,4.06
2022-12-23T23:57:01.699Z,4.05
2022-12-23T23:59:33.012Z,4.16
